Map

Track Data

SID SEASON NUMBER BASIN SUBBASIN NAME ISO_TIME NATURE LAT LON WMO_WIND WMO_PRES WMO_AGENCY TRACK_TYPE DIST2LAND LANDFALL IFLAG USA_AGENCY USA_ATCF_ID USA_LAT USA_LON USA_RECORD USA_STATUS USA_WIND USA_PRES USA_SSHS USA_R34_NE USA_R34_SE USA_R34_SW USA_R34_NW USA_R50_NE USA_R50_SE USA_R50_SW USA_R50_NW USA_R64_NE USA_R64_SE USA_R64_SW USA_R64_NW USA_POCI USA_ROCI USA_RMW USA_EYE TOKYO_LAT TOKYO_LON TOKYO_GRADE TOKYO_WIND TOKYO_PRES TOKYO_R50_DIR TOKYO_R50_LONG TOKYO_R50_SHORT TOKYO_R30_DIR TOKYO_R30_LONG TOKYO_R30_SHORT TOKYO_LAND CMA_LAT CMA_LON CMA_CAT CMA_WIND CMA_PRES HKO_LAT HKO_LON HKO_CAT HKO_WIND HKO_PRES NEWDELHI_LAT NEWDELHI_LON NEWDELHI_GRADE NEWDELHI_WIND NEWDELHI_PRES NEWDELHI_CI NEWDELHI_DP NEWDELHI_POCI REUNION_LAT REUNION_LON REUNION_TYPE REUNION_WIND REUNION_PRES REUNION_TNUM REUNION_CI REUNION_RMW REUNION_R34_NE REUNION_R34_SE REUNION_R34_SW REUNION_R34_NW REUNION_R50_NE REUNION_R50_SE REUNION_R50_SW REUNION_R50_NW REUNION_R64_NE REUNION_R64_SE REUNION_R64_SW REUNION_R64_NW BOM_LAT BOM_LON BOM_TYPE BOM_WIND BOM_PRES BOM_TNUM BOM_CI BOM_RMW BOM_R34_NE BOM_R34_SE BOM_R34_SW BOM_R34_NW BOM_R50_NE BOM_R50_SE BOM_R50_SW BOM_R50_NW BOM_R64_NE BOM_R64_SE BOM_R64_SW BOM_R64_NW BOM_ROCI BOM_POCI BOM_EYE BOM_POS_METHOD BOM_PRES_METHOD NADI_LAT NADI_LON NADI_CAT NADI_WIND NADI_PRES WELLINGTON_LAT WELLINGTON_LON WELLINGTON_WIND WELLINGTON_PRES DS824_LAT DS824_LON DS824_STAGE DS824_WIND DS824_PRES TD9636_LAT TD9636_LON TD9636_STAGE TD9636_WIND TD9636_PRES TD9635_LAT TD9635_LON TD9635_WIND TD9635_PRES TD9635_ROCI NEUMANN_LAT NEUMANN_LON NEUMANN_CLASS NEUMANN_WIND NEUMANN_PRES MLC_LAT MLC_LON MLC_CLASS MLC_WIND MLC_PRES USA_GUST BOM_GUST BOM_GUST_PER REUNION_GUST REUNION_GUST_PER USA_SEAHGT USA_SEARAD_NE USA_SEARAD_SE USA_SEARAD_SW USA_SEARAD_NW STORM_SPEED STORM_DIR
1933296N13129 1933 68 WP MM NOT_NAMED 1933-10-23 10:00:00 NR 13.1000 129.200 main 414 403 __________O___ -1 13.1000 129.200 7 5 312
1933296N13129 1933 68 WP MM NOT_NAMED 1933-10-23 12:00:00 NR 13.2120 129.074 main 406 388 __________P___ -1 13.2120 129.074 7 5 311
1933296N13129 1933 68 WP MM NOT_NAMED 1933-10-23 15:00:00 NR 13.3942 128.858 main 392 370 __________P___ -1 13.3942 128.858 7 6 309
1933296N13129 1933 68 WP MM NOT_NAMED 1933-10-23 18:00:00 NR 13.6131 128.570 main 370 343 __________P___ -1 13.6131 128.570 7 8 306
1933296N13129 1933 68 WP MM NOT_NAMED 1933-10-23 21:00:00 NR 13.8907 128.167 main 349 337 __________P___ -1 13.8907 128.167 7 10 305
1933296N13129 1933 68 WP MM NOT_NAMED 1933-10-23 22:00:00 NR 14.0000 128.000 main 337 319 __________O___ -1 14.0000 128.000 3 13 303
1933296N13129 1933 68 WP MM NOT_NAMED 1933-10-24 00:00:00 NR 14.2457 127.611 main 319 280 __________P___ -1 14.2457 127.611 3 15 302
1933296N13129 1933 68 WP MM NOT_NAMED 1933-10-24 03:00:00 NR 14.6646 126.907 main 283 227 __________P___ -1 14.6646 126.907 3 17 301
1933296N13129 1933 68 WP MM NOT_NAMED 1933-10-24 06:00:00 NR 15.1135 126.092 main 227 199 __________P___ -1 15.1135 126.092 3 19 299
1933296N13129 1933 68 WP MM NOT_NAMED 1933-10-24 09:00:00 NR 15.5584 125.205 main 203 198 __________P___ -1 15.5584 125.205 3 19 297
1933296N13129 1933 68 WP MM NOT_NAMED 1933-10-24 10:00:00 NR 15.7000 124.900 main 200 197 __________O___ -1 15.7000 124.900 4 20 296
1933296N13129 1933 68 WP MM NOT_NAMED 1933-10-24 12:00:00 NR 15.9990 124.253 main 216 93 __________P___ -1 15.9990 124.253 4 21 295
1933296N13129 1933 68 WP MM NOT_NAMED 1933-10-24 15:00:00 NR 16.4292 123.237 main 93 0 __________P___ -1 16.4292 123.237 4 21 292
1933296N13129 1933 68 WP MM NOT_NAMED 1933-10-24 18:00:00 NR 16.7945 122.242 main 0 0 __________P___ -1 16.7945 122.242 4 19 289
1933296N13129 1933 68 WP MM NOT_NAMED 1933-10-24 21:00:00 NR 17.0482 121.356 main 0 0 __________P___ -1 17.0482 121.356 4 17 286
1933296N13129 1933 68 WP MM NOT_NAMED 1933-10-24 22:00:00 NR 17.1000 121.100 main 0 0 __________O___ -1 17.1000 121.100 4 13 277
1933296N13129 1933 68 WP MM NOT_NAMED 1933-10-25 00:00:00 NR 17.1288 120.698 main 0 0 __________P___ -1 17.1288 120.698 4 10 267
1933296N13129 1933 68 WP MM NOT_NAMED 1933-10-25 03:00:00 NR 17.0601 120.228 main 24 24 __________P___ -1 17.0601 120.228 4 8 255
1933296N13129 1933 68 WP MM NOT_NAMED 1933-10-25 06:00:00 NR 16.9127 119.859 main 54 55 __________P___ -1 16.9127 119.859 4 7 245
1933296N13129 1933 68 WP MM NOT_NAMED 1933-10-25 09:00:00 NR 16.7481 119.519 main 55 55 __________P___ -1 16.7481 119.519 4 7 244
1933296N13129 1933 68 WP MM NOT_NAMED 1933-10-25 10:00:00 NR 16.7000 119.400 main 61 61 __________O___ -1 16.7000 119.400 4 8 256
1933296N13129 1933 68 WP MM NOT_NAMED 1933-10-25 12:00:00 NR 16.6547 119.127 main 87 81 __________P___ -1 16.6547 119.127 4 8 261
1933296N13129 1933 68 WP MM NOT_NAMED 1933-10-25 15:00:00 NR 16.5996 118.711 main 122 122 __________P___ -1 16.5996 118.711 4 8 263
1933296N13129 1933 68 WP MM NOT_NAMED 1933-10-25 18:00:00 NR 16.5547 118.269 main 163 169 __________P___ -1 16.5547 118.269 4 9 265
1933296N13129 1933 68 WP MM NOT_NAMED 1933-10-25 21:00:00 NR 16.5138 117.778 main 210 220 __________P___ -1 16.5138 117.778 4 10 265
1933296N13129 1933 68 WP MM NOT_NAMED 1933-10-25 22:00:00 NR 16.5000 117.600 main 231 231 __________O___ -1 16.5000 117.600 4 11 266
1933296N13129 1933 68 WP MM NOT_NAMED 1933-10-26 00:00:00 NR 16.4745 117.218 main 272 272 __________P___ -1 16.4745 117.218 4 12 266
1933296N13129 1933 68 WP MM NOT_NAMED 1933-10-26 03:00:00 NR 16.4364 116.594 main 334 334 __________P___ -1 16.4364 116.594 4 12 266
1933296N13129 1933 68 WP MM NOT_NAMED 1933-10-26 06:00:00 NR 16.3902 115.926 main 408 408 __________P___ -1 16.3902 115.926 4 13 265
1933296N13129 1933 68 WP MM NOT_NAMED 1933-10-26 09:00:00 NR 16.3266 115.233 main 481 481 __________P___ -1 16.3266 115.233 4 13 264
1933296N13129 1933 68 WP MM NOT_NAMED 1933-10-26 10:00:00 NR 16.3000 115.000 main 503 503 __________O___ -1 16.3000 115.000 4 14 262
1933296N13129 1933 68 WP MM NOT_NAMED 1933-10-26 12:00:00 NR 16.2238 114.502 main 514 454 __________P___ -1 16.2238 114.502 4 15 260
1933296N13129 1933 68 WP MM NOT_NAMED 1933-10-26 15:00:00 NR 16.0903 113.743 main 454 409 __________P___ -1 16.0903 113.743 4 15 259
1933296N13129 1933 68 WP MM NOT_NAMED 1933-10-26 18:00:00 NR 15.9525 113.017 main 409 374 __________P___ -1 15.9525 113.017 4 13 259
1933296N13129 1933 68 WP MM NOT_NAMED 1933-10-26 21:00:00 NR 15.8323 112.382 main 374 354 __________P___ -1 15.8323 112.382 4 12 259
1933296N13129 1933 68 WP MM NOT_NAMED 1933-10-26 22:00:00 NR 15.8000 112.200 main 354 324 __________O___ -1 15.8000 112.200 4 9 261
1933296N13129 1933 68 WP MM NOT_NAMED 1933-10-27 00:00:00 NR 15.7569 111.906 main 324 290 __________P___ -1 15.7569 111.906 4 7 262
1933296N13129 1933 68 WP MM NOT_NAMED 1933-10-27 03:00:00 NR 15.7183 111.567 main 290 261 __________P___ -1 15.7183 111.567 4 6 265
1933296N13129 1933 68 WP MM NOT_NAMED 1933-10-27 06:00:00 NR 15.7025 111.306 main 261 242 __________P___ -1 15.7025 111.306 4 5 268
1933296N13129 1933 68 WP MM NOT_NAMED 1933-10-27 09:00:00 NR 15.6997 111.077 main 242 232 __________P___ -1 15.6997 111.077 4 4 270
1933296N13129 1933 68 WP MM NOT_NAMED 1933-10-27 10:00:00 NR 15.7000 111.000 main 232 211 __________O___ -1 15.7000 111.000 4 5 269
1933296N13129 1933 68 WP MM NOT_NAMED 1933-10-27 12:00:00 NR 15.6939 110.832 main 211 190 __________P___ -1 15.6939 110.832 4 5 269
1933296N13129 1933 68 WP MM NOT_NAMED 1933-10-27 15:00:00 NR 15.6913 110.587 main 190 160 __________P___ -1 15.6913 110.587 4 5 270
1933296N13129 1933 68 WP MM NOT_NAMED 1933-10-27 18:00:00 NR 15.6939 110.324 main 160 130 __________P___ -1 15.6939 110.324 4 5 271
1933296N13129 1933 68 WP MM NOT_NAMED 1933-10-27 21:00:00 NR 15.6985 110.017 main 130 120 __________P___ -1 15.6985 110.017 4 6 271
1933296N13129 1933 68 WP MM NOT_NAMED 1933-10-27 22:00:00 NR 15.7000 109.900 main 120 93 __________O___ -1 15.7000 109.900 4 7 270
1933296N13129 1933 68 WP MM NOT_NAMED 1933-10-28 00:00:00 NR 15.7001 109.632 main 93 61 __________P___ -1 15.7001 109.632 4 8 270
1933296N13129 1933 68 WP MM NOT_NAMED 1933-10-28 03:00:00 NR 15.7002 109.179 main 61 24 __________P___ -1 15.7002 109.179 4 9 270
1933296N13129 1933 68 WP MM NOT_NAMED 1933-10-28 06:00:00 NR 15.7001 108.685 main 24 0 __________P___ -1 15.7001 108.685 4 10 270
1933296N13129 1933 68 WP MM NOT_NAMED 1933-10-28 09:00:00 NR 15.7000 108.172 main 0 0 __________P___ -1 15.7000 108.172 4 10 270
1933296N13129 1933 68 WP MM NOT_NAMED 1933-10-28 10:00:00 NR 15.7000 108.000 main 0 0 __________O___ -1 15.7000 108.000 4 10 270
1933296N13129 1933 68 WP MM NOT_NAMED 1933-10-28 12:00:00 NR 15.7001 107.660 main 0 0 __________P___ -1 15.7001 107.660 4 10 270
1933296N13129 1933 68 WP MM NOT_NAMED 1933-10-28 15:00:00 NR 15.7005 107.156 main 0 0 __________P___ -1 15.7005 107.156 4 10 270
1933296N13129 1933 68 WP MM NOT_NAMED 1933-10-28 18:00:00 NR 15.7007 106.659 main 0 0 __________P___ -1 15.7007 106.659 4 10 270
1933296N13129 1933 68 WP MM NOT_NAMED 1933-10-28 21:00:00 NR 15.7003 106.164 main 0 0 __________P___ -1 15.7003 106.164 4 10 270
1933296N13129 1933 68 WP MM NOT_NAMED 1933-10-28 22:00:00 NR 15.7000 106.000 main 0 __________O___ -1 15.7000 106.000 4 10 270

Digital Typhoon Data and Search

About IBTrACS Database

This database is a web-friendly format of International Best Track Archive for Climate Stewardship (IBTrACS), a global best track data archive curated by NOAA dating back to 1842.

Updated: 2021-12-03